sensor_id;sensor_type;location;lat;lon;timestamp;pressure;altitude;pressure_sealevel;temperature;humidity
49835;BME280;35729;52.090;13.162;2022-09-16T00:01:18;100026.13;;;10.82;88.40
49835;BME280;35729;52.090;13.162;2022-09-16T00:03:47;100014.78;;;10.82;88.22
49835;BME280;35729;52.090;13.162;2022-09-16T00:06:18;100027.03;;;10.81;88.25
49835;BME280;35729;52.090;13.162;2022-09-16T00:08:47;100024.41;;;10.81;88.54
49835;BME280;35729;52.090;13.162;2022-09-16T00:11:19;100024.41;;;10.81;88.61
49835;BME280;35729;52.090;13.162;2022-09-16T00:13:47;100014.81;;;10.80;88.53
49835;BME280;35729;52.090;13.162;2022-09-16T00:16:20;100021.78;;;10.81;88.39
49835;BME280;35729;52.090;13.162;2022-09-16T00:18:52;100022.66;;;10.82;88.46
49835;BME280;35729;52.090;13.162;2022-09-16T00:21:23;100025.28;;;10.82;88.29
49835;BME280;35729;52.090;13.162;2022-09-16T00:23:51;100027.03;;;10.81;88.69
49835;BME280;35729;52.090;13.162;2022-09-16T00:26:20;100028.84;;;10.79;88.59
49835;BME280;35729;52.090;13.162;2022-09-16T00:28:55;100026.28;;;10.78;88.68
49835;BME280;35729;52.090;13.162;2022-09-16T00:31:26;100028.97;;;10.76;88.72
49835;BME280;35729;52.090;13.162;2022-09-16T00:33:54;100022.91;;;10.74;88.94
49835;BME280;35729;52.090;13.162;2022-09-16T00:36:23;100029.97;;;10.72;89.00
49835;BME280;35729;52.090;13.162;2022-09-16T00:38:53;100029.28;;;10.67;89.27
49835;BME280;35729;52.090;13.162;2022-09-16T00:41:23;100032.81;;;10.66;89.00
49835;BME280;35729;52.090;13.162;2022-09-16T00:43:54;100027.66;;;10.63;89.34
49835;BME280;35729;52.090;13.162;2022-09-16T00:46:30;100032.94;;;10.61;89.43
49835;BME280;35729;52.090;13.162;2022-09-16T00:49:03;100033.97;;;10.57;89.66
49835;BME280;35729;52.090;13.162;2022-09-16T00:51:33;100031.41;;;10.55;89.80
49835;BME280;35729;52.090;13.162;2022-09-16T00:54:03;100033.28;;;10.52;89.96
49835;BME280;35729;52.090;13.162;2022-09-16T00:56:36;100031.50;;;10.52;89.94
49835;BME280;35729;52.090;13.162;2022-09-16T00:59:08;100033.28;;;10.52;89.77
49835;BME280;35729;52.090;13.162;2022-09-16T01:01:41;100030.72;;;10.49;89.76
49835;BME280;35729;52.090;13.162;2022-09-16T01:04:15;100034.28;;;10.48;90.09
49835;BME280;35729;52.090;13.162;2022-09-16T01:06:45;100035.19;;;10.47;90.00
49835;BME280;35729;52.090;13.162;2022-09-16T01:09:13;100030.91;;;10.44;90.34
49835;BME280;35729;52.090;13.162;2022-09-16T01:11:42;100030.91;;;10.44;90.53
49835;BME280;35729;52.090;13.162;2022-09-16T01:14:11;100038.78;;;10.44;90.41
49835;BME280;35729;52.090;13.162;2022-09-16T01:17:02;100038.78;;;10.44;90.64
49835;BME280;35729;52.090;13.162;2022-09-16T01:20:00;100034.38;;;10.45;90.75
49835;BME280;35729;52.090;13.162;2022-09-16T01:22:44;100029.13;;;10.45;90.46
49835;BME280;35729;52.090;13.162;2022-09-16T01:25:25;100041.34;;;10.46;90.61
49835;BME280;35729;52.090;13.162;2022-09-16T01:28:24;100029.06;;;10.46;90.68
49835;BME280;35729;52.090;13.162;2022-09-16T01:31:11;100032.56;;;10.47;90.54
49835;BME280;35729;52.090;13.162;2022-09-16T01:33:48;100039.56;;;10.46;90.48
49835;BME280;35729;52.090;13.162;2022-09-16T01:36:37;100037.81;;;10.47;90.43
49835;BME280;35729;52.090;13.162;2022-09-16T01:39:18;100036.94;;;10.46;90.28
49835;BME280;35729;52.090;13.162;2022-09-16T01:42:04;100035.25;;;10.45;90.25
49835;BME280;35729;52.090;13.162;2022-09-16T01:44:42;100044.84;;;10.45;90.63
49835;BME280;35729;52.090;13.162;2022-09-16T01:47:20;100046.63;;;10.44;90.40
49835;BME280;35729;52.090;13.162;2022-09-16T01:49:58;100039.66;;;10.43;90.43
49835;BME280;35729;52.090;13.162;2022-09-16T01:52:36;100037.94;;;10.42;90.45
49835;BME280;35729;52.090;13.162;2022-09-16T01:55:08;100039.72;;;10.41;90.57
49835;BME280;35729;52.090;13.162;2022-09-16T01:57:44;100038.91;;;10.39;90.77
49835;BME280;35729;52.090;13.162;2022-09-16T02:00:16;100032.00;;;10.37;90.40
49835;BME280;35729;52.090;13.162;2022-09-16T02:02:50;100037.25;;;10.37;90.84
49835;BME280;35729;52.090;13.162;2022-09-16T02:05:24;100032.00;;;10.37;90.51
49835;BME280;35729;52.090;13.162;2022-09-16T02:07:59;100038.16;;;10.36;90.63
49835;BME280;35729;52.090;13.162;2022-09-16T02:10:31;100034.69;;;10.34;90.70
49835;BME280;35729;52.090;13.162;2022-09-16T02:13:04;100026.91;;;10.31;90.71
49835;BME280;35729;52.090;13.162;2022-09-16T02:15:38;100032.16;;;10.31;90.81
49835;BME280;35729;52.090;13.162;2022-09-16T02:18:13;100019.94;;;10.30;90.88
49835;BME280;35729;52.090;13.162;2022-09-16T02:20:46;100020.00;;;10.28;90.86
49835;BME280;35729;52.090;13.162;2022-09-16T02:23:19;100028.78;;;10.27;91.10
49835;BME280;35729;52.090;13.162;2022-09-16T02:25:52;100022.75;;;10.25;91.09
49835;BME280;35729;52.090;13.162;2022-09-16T02:28:26;100026.25;;;10.24;91.18
49835;BME280;35729;52.090;13.162;2022-09-16T02:30:58;100020.19;;;10.22;91.16
49835;BME280;35729;52.090;13.162;2022-09-16T02:33:33;100022.03;;;10.20;91.00
49835;BME280;35729;52.090;13.162;2022-09-16T02:36:06;100016.78;;;10.20;91.01
49835;BME280;35729;52.090;13.162;2022-09-16T02:38:39;100014.16;;;10.20;91.15
49835;BME280;35729;52.090;13.162;2022-09-16T02:41:08;100015.09;;;10.17;91.22
49835;BME280;35729;52.090;13.162;2022-09-16T02:43:39;100020.34;;;10.17;91.06
49835;BME280;35729;52.090;13.162;2022-09-16T02:46:12;100016.94;;;10.15;91.37
49835;BME280;35729;52.090;13.162;2022-09-16T02:48:53;100018.66;;;10.15;91.38
49835;BME280;35729;52.090;13.162;2022-09-16T02:51:31;100023.06;;;10.14;91.15
49835;BME280;35729;52.090;13.162;2022-09-16T02:54:03;100026.66;;;10.11;91.38
49835;BME280;35729;52.090;13.162;2022-09-16T02:56:36;100032.72;;;10.12;91.16
49835;BME280;35729;52.090;13.162;2022-09-16T02:59:07;100032.84;;;10.09;91.18
49835;BME280;35729;52.090;13.162;2022-09-16T03:01:39;100028.50;;;10.08;91.35
49835;BME280;35729;52.090;13.162;2022-09-16T03:04:13;100036.47;;;10.05;91.53
49835;BME280;35729;52.090;13.162;2022-09-16T03:06:42;100030.31;;;10.06;91.36
49835;BME280;35729;52.090;13.162;2022-09-16T03:09:12;100023.31;;;10.06;91.40
49835;BME280;35729;52.090;13.162;2022-09-16T03:11:57;100029.44;;;10.05;91.45
49835;BME280;35729;52.090;13.162;2022-09-16T03:14:53;100029.44;;;10.05;91.39
49835;BME280;35729;52.090;13.162;2022-09-16T03:17:35;100029.44;;;10.05;91.48
49835;BME280;35729;52.090;13.162;2022-09-16T03:20:15;100030.34;;;10.04;91.47
49835;BME280;35729;52.090;13.162;2022-09-16T03:22:50;100034.75;;;10.04;91.40
49835;BME280;35729;52.090;13.162;2022-09-16T03:25:32;100034.75;;;10.04;91.55
49835;BME280;35729;52.090;13.162;2022-09-16T03:28:08;100029.50;;;10.04;91.44
49835;BME280;35729;52.090;13.162;2022-09-16T03:30:45;100025.13;;;10.04;91.45
49835;BME280;35729;52.090;13.162;2022-09-16T03:33:22;100021.59;;;10.05;91.41
49835;BME280;35729;52.090;13.162;2022-09-16T03:35:57;100027.72;;;10.04;91.41
49835;BME280;35729;52.090;13.162;2022-09-16T03:38:27;100022.44;;;10.06;91.44
49835;BME280;35729;52.090;13.162;2022-09-16T03:40:57;100022.50;;;10.04;91.42
49835;BME280;35729;52.090;13.162;2022-09-16T03:43:26;100026.84;;;10.05;91.15
49835;BME280;35729;52.090;13.162;2022-09-16T03:45:54;100026.84;;;10.05;91.28
49835;BME280;35729;52.090;13.162;2022-09-16T03:48:23;100026.88;;;10.04;91.31
49835;BME280;35729;52.090;13.162;2022-09-16T03:50:54;100031.22;;;10.05;91.28
49835;BME280;35729;52.090;13.162;2022-09-16T03:53:22;100020.75;;;10.05;91.24
49835;BME280;35729;52.090;13.162;2022-09-16T03:55:51;100027.72;;;10.04;91.32
49835;BME280;35729;52.090;13.162;2022-09-16T03:58:19;100029.50;;;10.04;91.38
49835;BME280;35729;52.090;13.162;2022-09-16T04:00:48;100030.41;;;10.03;91.25
49835;BME280;35729;52.090;13.162;2022-09-16T04:03:18;100023.38;;;10.03;91.38
49835;BME280;35729;52.090;13.162;2022-09-16T04:05:54;100014.69;;;10.03;91.34
49835;BME280;35729;52.090;13.162;2022-09-16T04:08:22;100025.22;;;10.01;91.34
49835;BME280;35729;52.090;13.162;2022-09-16T04:10:54;100021.72;;;10.01;91.28
49835;BME280;35729;52.090;13.162;2022-09-16T04:13:24;100017.41;;;10.00;91.32
49835;BME280;35729;52.090;13.162;2022-09-16T04:15:52;100016.59;;;9.98;91.35
49835;BME280;35729;52.090;13.162;2022-09-16T04:18:21;100019.22;;;9.98;91.43
49835;BME280;35729;52.090;13.162;2022-09-16T04:20:49;100014.81;;;9.98;91.34
49835;BME280;35729;52.090;13.162;2022-09-16T04:23:22;100001.06;;;9.91;91.29
49835;BME280;35729;52.090;13.162;2022-09-16T04:25:54;100018.44;;;9.94;91.54
49835;BME280;35729;52.090;13.162;2022-09-16T04:28:23;100015.88;;;9.92;91.31
49835;BME280;35729;52.090;13.162;2022-09-16T04:30:52;100015.88;;;9.92;91.37
49835;BME280;35729;52.090;13.162;2022-09-16T04:33:20;100014.16;;;9.91;91.38
49835;BME280;35729;52.090;13.162;2022-09-16T04:35:49;100016.84;;;9.90;91.30
49835;BME280;35729;52.090;13.162;2022-09-16T04:38:26;100016.84;;;9.90;91.37
49835;BME280;35729;52.090;13.162;2022-09-16T04:40:59;100011.66;;;9.88;91.39
49835;BME280;35729;52.090;13.162;2022-09-16T04:43:28;100002.91;;;9.88;91.47
49835;BME280;35729;52.090;13.162;2022-09-16T04:45:56;100003.81;;;9.87;91.41
49835;BME280;35729;52.090;13.162;2022-09-16T04:48:25;100016.06;;;9.86;91.49
49835;BME280;35729;52.090;13.162;2022-09-16T04:51:01;100010.81;;;9.86;91.38
49835;BME280;35729;52.090;13.162;2022-09-16T04:53:33;100003.88;;;9.85;91.25
49835;BME280;35729;52.090;13.162;2022-09-16T04:56:03;100006.53;;;9.84;91.41
49835;BME280;35729;52.090;13.162;2022-09-16T04:58:32;100004.75;;;9.84;91.26
49835;BME280;35729;52.090;13.162;2022-09-16T05:01:06;100015.25;;;9.84;91.16
49835;BME280;35729;52.090;13.162;2022-09-16T05:03:37;100007.44;;;9.83;91.31
49835;BME280;35729;52.090;13.162;2022-09-16T05:06:07;100004.88;;;9.81;91.19
49835;BME280;35729;52.090;13.162;2022-09-16T05:08:39;100004.88;;;9.81;91.38
49835;BME280;35729;52.090;13.162;2022-09-16T05:11:09;100017.91;;;9.83;91.33
49835;BME280;35729;52.090;13.162;2022-09-16T05:13:39;100015.34;;;9.81;91.34
49835;BME280;35729;52.090;13.162;2022-09-16T05:16:09;100015.41;;;9.80;91.24
49835;BME280;35729;52.090;13.162;2022-09-16T05:18:39;100011.84;;;9.81;91.18
49835;BME280;35729;52.090;13.162;2022-09-16T05:21:10;100011.91;;;9.79;91.27
49835;BME280;35729;52.090;13.162;2022-09-16T05:23:42;100003.25;;;9.77;91.34
49835;BME280;35729;52.090;13.162;2022-09-16T05:26:12;100010.16;;;9.80;91.20
49835;BME280;35729;52.090;13.162;2022-09-16T05:28:41;100019.72;;;9.81;91.19
49835;BME280;35729;52.090;13.162;2022-09-16T05:31:11;100016.25;;;9.80;91.17
49835;BME280;35729;52.090;13.162;2022-09-16T05:33:41;100011.78;;;9.84;91.09
49835;BME280;35729;52.090;13.162;2022-09-16T05:36:11;100010.00;;;9.84;91.16
49835;BME280;35729;52.090;13.162;2022-09-16T05:38:43;100012.63;;;9.84;91.15
49835;BME280;35729;52.090;13.162;2022-09-16T05:41:12;100009.09;;;9.85;91.22
49835;BME280;35729;52.090;13.162;2022-09-16T05:43:41;100006.41;;;9.88;91.13
49835;BME280;35729;52.090;13.162;2022-09-16T05:46:16;100007.31;;;9.87;91.16
49835;BME280;35729;52.090;13.162;2022-09-16T05:48:45;100007.13;;;9.92;91.04
49835;BME280;35729;52.090;13.162;2022-09-16T05:51:15;100018.44;;;9.94;90.95
49835;BME280;35729;52.090;13.162;2022-09-16T05:53:47;100004.44;;;9.95;90.81
49835;BME280;35729;52.090;13.162;2022-09-16T05:56:25;100002.59;;;9.99;90.80
49835;BME280;35729;52.090;13.162;2022-09-16T05:58:55;100017.31;;;10.03;90.65
49835;BME280;35729;52.090;13.162;2022-09-16T06:01:26;100015.44;;;10.06;90.70
49835;BME280;35729;52.090;13.162;2022-09-16T06:03:55;100010.09;;;10.09;90.58
49835;BME280;35729;52.090;13.162;2022-09-16T06:06:26;100017.81;;;10.14;90.24
49835;BME280;35729;52.090;13.162;2022-09-16T06:08:58;100019.41;;;10.20;90.18
49835;BME280;35729;52.090;13.162;2022-09-16T06:11:27;100024.44;;;10.26;90.11
49835;BME280;35729;52.090;13.162;2022-09-16T06:13:57;100021.63;;;10.32;90.02
49835;BME280;35729;52.090;13.162;2022-09-16T06:16:28;100024.91;;;10.40;89.78
49835;BME280;35729;52.090;13.162;2022-09-16T06:18:58;100024.63;;;10.48;89.33
49835;BME280;35729;52.090;13.162;2022-09-16T06:21:27;100020.00;;;10.56;88.89
49835;BME280;35729;52.090;13.162;2022-09-16T06:23:58;100016.25;;;10.64;88.62
49835;BME280;35729;52.090;13.162;2022-09-16T06:26:27;100015.22;;;10.69;87.70
49835;BME280;35729;52.090;13.162;2022-09-16T06:28:56;100018.53;;;10.74;87.67
49835;BME280;35729;52.090;13.162;2022-09-16T06:31:26;100020.97;;;10.79;87.22
49835;BME280;35729;52.090;13.162;2022-09-16T06:33:56;100028.63;;;10.85;86.64
49835;BME280;35729;52.090;13.162;2022-09-16T06:36:26;100016.19;;;10.92;86.97
49835;BME280;35729;52.090;13.162;2022-09-16T06:38:58;100008.94;;;10.99;86.84
49835;BME280;35729;52.090;13.162;2022-09-16T06:41:26;100024.56;;;11.02;84.96
49835;BME280;35729;52.090;13.162;2022-09-16T06:43:55;100012.19;;;11.05;86.06
49835;BME280;35729;52.090;13.162;2022-09-16T06:46:26;100020.72;;;11.12;85.78
49835;BME280;35729;52.090;13.162;2022-09-16T06:48:56;100017.88;;;11.18;85.91
49835;BME280;35729;52.090;13.162;2022-09-16T06:51:25;100005.31;;;11.27;85.46
49835;BME280;35729;52.090;13.162;2022-09-16T06:54:01;100019.09;;;11.33;83.29
49835;BME280;35729;52.090;13.162;2022-09-16T06:56:30;100005.63;;;11.43;84.50
49835;BME280;35729;52.090;13.162;2022-09-16T06:59:00;100007.00;;;11.53;83.96
49835;BME280;35729;52.090;13.162;2022-09-16T07:01:29;100015.50;;;11.60;83.73
49835;BME280;35729;52.090;13.162;2022-09-16T07:04:02;100025.72;;;11.67;82.36
49835;BME280;35729;52.090;13.162;2022-09-16T07:06:31;100020.28;;;11.72;81.88
49835;BME280;35729;52.090;13.162;2022-09-16T07:09:02;100017.53;;;11.75;82.24
49835;BME280;35729;52.090;13.162;2022-09-16T07:11:31;100021.78;;;11.79;81.82
49835;BME280;35729;52.090;13.162;2022-09-16T07:13:59;100015.59;;;11.80;80.34
49835;BME280;35729;52.090;13.162;2022-09-16T07:16:29;100016.38;;;11.82;80.90
49835;BME280;35729;52.090;13.162;2022-09-16T07:18:58;100016.28;;;11.85;81.78
49835;BME280;35729;52.090;13.162;2022-09-16T07:21:27;100013.53;;;11.88;81.58
49835;BME280;35729;52.090;13.162;2022-09-16T07:23:57;100005.50;;;11.92;82.00
49835;BME280;35729;52.090;13.162;2022-09-16T07:26:30;99998.44;;;11.94;81.41
49835;BME280;35729;52.090;13.162;2022-09-16T07:29:02;100017.66;;;11.96;81.62
49835;BME280;35729;52.090;13.162;2022-09-16T07:31:33;100013.25;;;11.96;80.96
49835;BME280;35729;52.090;13.162;2022-09-16T07:34:03;100014.13;;;11.95;80.39
49835;BME280;35729;52.090;13.162;2022-09-16T07:36:34;100028.13;;;11.97;79.62
49835;BME280;35729;52.090;13.162;2022-09-16T07:39:03;100021.88;;;12.00;80.26
49835;BME280;35729;52.090;13.162;2022-09-16T07:41:36;100011.22;;;12.03;80.31
49835;BME280;35729;52.090;13.162;2022-09-16T07:44:06;100016.38;;;12.06;80.07
49835;BME280;35729;52.090;13.162;2022-09-16T07:46:35;100017.19;;;12.08;80.37
49835;BME280;35729;52.090;13.162;2022-09-16T07:49:07;100013.59;;;12.11;80.35
49835;BME280;35729;52.090;13.162;2022-09-16T07:51:36;100017.97;;;12.10;79.84
49835;BME280;35729;52.090;13.162;2022-09-16T07:54:07;100014.28;;;12.14;79.90
49835;BME280;35729;52.090;13.162;2022-09-16T07:56:39;100022.19;;;12.14;79.65
49835;BME280;35729;52.090;13.162;2022-09-16T07:59:11;100028.31;;;12.15;79.02
49835;BME280;35729;52.090;13.162;2022-09-16T08:01:39;100024.63;;;12.19;79.78
49835;BME280;35729;52.090;13.162;2022-09-16T08:04:08;100024.47;;;12.24;78.51
49835;BME280;35729;52.090;13.162;2022-09-16T08:06:38;100035.66;;;12.29;77.75
49835;BME280;35729;52.090;13.162;2022-09-16T08:09:07;100030.16;;;12.35;78.02
49835;BME280;35729;52.090;13.162;2022-09-16T08:11:38;100024.50;;;12.44;77.94
49835;BME280;35729;52.090;13.162;2022-09-16T08:14:06;100025.81;;;12.54;78.01
49835;BME280;35729;52.090;13.162;2022-09-16T08:16:35;100020.06;;;12.67;77.70
49835;BME280;35729;52.090;13.162;2022-09-16T08:19:04;100020.53;;;12.77;76.86
49835;BME280;35729;52.090;13.162;2022-09-16T08:21:32;100023.81;;;12.82;74.04
49835;BME280;35729;52.090;13.162;2022-09-16T08:24:01;100017.38;;;12.89;75.83
49835;BME280;35729;52.090;13.162;2022-09-16T08:26:29;100012.78;;;12.94;74.90
49835;BME280;35729;52.090;13.162;2022-09-16T08:29:00;100016.91;;;13.00;74.61
49835;BME280;35729;52.090;13.162;2022-09-16T08:31:29;100022.81;;;13.05;73.12
49835;BME280;35729;52.090;13.162;2022-09-16T08:33:57;100022.72;;;13.08;74.05
49835;BME280;35729;52.090;13.162;2022-09-16T08:36:26;100020.81;;;13.12;73.58
49835;BME280;35729;52.090;13.162;2022-09-16T08:38:55;100019.94;;;13.11;71.38
49835;BME280;35729;52.090;13.162;2022-09-16T08:41:31;100032.25;;;13.11;70.62
49835;BME280;35729;52.090;13.162;2022-09-16T08:44:10;100024.28;;;13.12;71.19
49835;BME280;35729;52.090;13.162;2022-09-16T08:46:47;100025.19;;;13.11;70.00
49835;BME280;35729;52.090;13.162;2022-09-16T08:49:21;100010.03;;;13.16;71.26
49835;BME280;35729;52.090;13.162;2022-09-16T08:51:54;100010.56;;;13.25;70.63
49835;BME280;35729;52.090;13.162;2022-09-16T08:54:26;100023.47;;;13.31;70.24
49835;BME280;35729;52.090;13.162;2022-09-16T08:57:00;100020.53;;;13.39;70.53
49835;BME280;35729;52.090;13.162;2022-09-16T08:59:38;100039.53;;;13.45;68.27
49835;BME280;35729;52.090;13.162;2022-09-16T09:02:27;100016.47;;;13.50;68.78
49835;BME280;35729;52.090;13.162;2022-09-16T09:05:00;100018.81;;;13.57;70.56
49835;BME280;35729;52.090;13.162;2022-09-16T09:07:36;100017.75;;;13.61;68.28
49835;BME280;35729;52.090;13.162;2022-09-16T09:10:17;100021.34;;;13.60;68.16
49835;BME280;35729;52.090;13.162;2022-09-16T09:12:54;100032.66;;;13.62;68.34
49835;BME280;35729;52.090;13.162;2022-09-16T09:15:38;100024.66;;;13.63;67.55
49835;BME280;35729;52.090;13.162;2022-09-16T09:18:27;100022.91;;;13.64;67.30
49835;BME280;35729;52.090;13.162;2022-09-16T09:21:09;100030.72;;;13.65;67.45
49835;BME280;35729;52.090;13.162;2022-09-16T09:24:03;100012.91;;;13.71;67.36
49835;BME280;35729;52.090;13.162;2022-09-16T09:26:42;100022.34;;;13.76;67.97
49835;BME280;35729;52.090;13.162;2022-09-16T09:29:34;100011.47;;;13.82;67.61
49835;BME280;35729;52.090;13.162;2022-09-16T09:32:15;100009.50;;;13.88;68.40
49835;BME280;35729;52.090;13.162;2022-09-16T09:34:57;100009.34;;;13.91;67.68
49835;BME280;35729;52.090;13.162;2022-09-16T09:38:09;100006.72;;;13.91;67.40
49835;BME280;35729;52.090;13.162;2022-09-16T09:40:50;100000.63;;;13.89;66.58
49835;BME280;35729;52.090;13.162;2022-09-16T09:43:24;99997.00;;;13.91;66.92
49835;BME280;35729;52.090;13.162;2022-09-16T09:46:01;100005.72;;;13.93;65.63
49835;BME280;35729;52.090;13.162;2022-09-16T09:48:37;99998.50;;;13.97;66.24
49835;BME280;35729;52.090;13.162;2022-09-16T09:51:14;100013.41;;;13.98;63.15
49835;BME280;35729;52.090;13.162;2022-09-16T09:53:46;99989.81;;;13.95;63.96
49835;BME280;35729;52.090;13.162;2022-09-16T09:56:20;100000.22;;;13.98;65.45
49835;BME280;35729;52.090;13.162;2022-09-16T09:58:54;99987.97;;;13.97;62.81
49835;BME280;35729;52.090;13.162;2022-09-16T10:01:24;99983.41;;;14.00;63.54
49835;BME280;35729;52.090;13.162;2022-09-16T10:03:55;99980.47;;;14.07;64.04
49835;BME280;35729;52.090;13.162;2022-09-16T10:06:27;99985.50;;;14.11;64.50
49835;BME280;35729;52.090;13.162;2022-09-16T10:08:57;99992.34;;;14.15;63.59
49835;BME280;35729;52.090;13.162;2022-09-16T10:11:29;99975.53;;;14.18;62.43
49835;BME280;35729;52.090;13.162;2022-09-16T10:14:00;99986.63;;;14.25;63.73
49835;BME280;35729;52.090;13.162;2022-09-16T10:16:33;99956.38;;;14.32;62.53
49835;BME280;35729;52.090;13.162;2022-09-16T10:19:07;99973.59;;;14.39;58.94
49835;BME280;35729;52.090;13.162;2022-09-16T10:21:45;99960.88;;;14.47;61.17
49835;BME280;35729;52.090;13.162;2022-09-16T10:24:28;99972.84;;;14.55;59.06
49835;BME280;35729;52.090;13.162;2022-09-16T10:27:18;99973.50;;;14.58;57.82
49835;BME280;35729;52.090;13.162;2022-09-16T10:29:47;99979.66;;;14.59;59.75
49835;BME280;35729;52.090;13.162;2022-09-16T10:32:30;99971.81;;;14.57;58.41
49835;BME280;35729;52.090;13.162;2022-09-16T10:35:07;99977.09;;;14.57;59.18
49835;BME280;35729;52.090;13.162;2022-09-16T10:37:36;99981.50;;;14.57;60.48
49835;BME280;35729;52.090;13.162;2022-09-16T10:40:15;99978.25;;;14.52;58.10
49835;BME280;35729;52.090;13.162;2022-09-16T10:42:46;99973.84;;;14.52;60.60
49835;BME280;35729;52.090;13.162;2022-09-16T10:45:22;99973.97;;;14.49;59.43
49835;BME280;35729;52.090;13.162;2022-09-16T10:47:54;99982.06;;;14.46;59.04
49835;BME280;35729;52.090;13.162;2022-09-16T10:50:27;99982.13;;;14.44;60.18
49835;BME280;35729;52.090;13.162;2022-09-16T10:52:55;99990.03;;;14.44;60.16
49835;BME280;35729;52.090;13.162;2022-09-16T10:55:26;99967.00;;;14.48;60.64
49835;BME280;35729;52.090;13.162;2022-09-16T10:58:06;99964.97;;;14.53;59.18
49835;BME280;35729;52.090;13.162;2022-09-16T11:00:43;99976.22;;;14.57;58.54
49835;BME280;35729;52.090;13.162;2022-09-16T11:06:27;99953.59;;;14.70;58.05
49835;BME280;35729;52.090;13.162;2022-09-16T11:09:07;99948.53;;;14.83;58.33
49835;BME280;35729;52.090;13.162;2022-09-16T11:11:46;99943.38;;;14.97;58.19
49835;BME280;35729;52.090;13.162;2022-09-16T11:14:27;99947.84;;;15.13;55.50
49835;BME280;35729;52.090;13.162;2022-09-16T11:17:08;99950.69;;;15.26;54.72
49835;BME280;35729;52.090;13.162;2022-09-16T11:19:52;99949.41;;;15.33;52.59
49835;BME280;35729;52.090;13.162;2022-09-16T11:22:31;99934.91;;;15.40;51.38
49835;BME280;35729;52.090;13.162;2022-09-16T11:25:23;99942.50;;;15.46;51.06
49835;BME280;35729;52.090;13.162;2022-09-16T11:28:01;99943.09;;;15.52;52.62
49835;BME280;35729;52.090;13.162;2022-09-16T11:30:39;99940.31;;;15.55;52.22
49835;BME280;35729;52.090;13.162;2022-09-16T11:33:23;99942.53;;;15.62;51.06
49835;BME280;35729;52.090;13.162;2022-09-16T11:36:16;99945.69;;;15.69;50.86
49835;BME280;35729;52.090;13.162;2022-09-16T11:38:58;99930.41;;;15.74;51.21
49835;BME280;35729;52.090;13.162;2022-09-16T11:41:33;99938.34;;;15.74;50.14
49835;BME280;35729;52.090;13.162;2022-09-16T11:44:31;99936.66;;;15.73;50.15
49835;BME280;35729;52.090;13.162;2022-09-16T11:47:11;99952.16;;;15.79;50.91
49835;BME280;35729;52.090;13.162;2022-09-16T11:50:02;99942.44;;;15.80;49.78
49835;BME280;35729;52.090;13.162;2022-09-16T11:52:57;99929.16;;;15.82;50.83
49835;BME280;35729;52.090;13.162;2022-09-16T11:55:40;99922.00;;;15.84;50.83
49835;BME280;35729;52.090;13.162;2022-09-16T11:58:23;99922.69;;;15.87;49.88
49835;BME280;35729;52.090;13.162;2022-09-16T12:00:57;99928.38;;;15.95;50.36
49835;BME280;35729;52.090;13.162;2022-09-16T12:03:31;99921.69;;;16.04;49.46
49835;BME280;35729;52.090;13.162;2022-09-16T12:06:06;99908.69;;;16.16;51.01
49835;BME280;35729;52.090;13.162;2022-09-16T12:08:48;99910.44;;;16.31;50.55
49835;BME280;35729;52.090;13.162;2022-09-16T12:11:25;99904.06;;;16.50;48.02
49835;BME280;35729;52.090;13.162;2022-09-16T12:14:03;99915.22;;;16.69;48.40
49835;BME280;35729;52.090;13.162;2022-09-16T12:16:39;99906.28;;;16.86;46.93
49835;BME280;35729;52.090;13.162;2022-09-16T12:19:13;99899.75;;;16.92;45.80
49835;BME280;35729;52.090;13.162;2022-09-16T12:21:48;99901.97;;;17.00;46.61
49835;BME280;35729;52.090;13.162;2022-09-16T12:24:22;99904.13;;;17.07;46.25
49835;BME280;35729;52.090;13.162;2022-09-16T12:27:02;99887.16;;;17.24;46.09
49835;BME280;35729;52.090;13.162;2022-09-16T12:29:37;99884.38;;;17.40;45.14
49835;BME280;35729;52.090;13.162;2022-09-16T12:32:11;99884.72;;;17.49;43.32
49835;BME280;35729;52.090;13.162;2022-09-16T12:34:43;99915.22;;;17.56;45.00
49835;BME280;35729;52.090;13.162;2022-09-16T12:37:22;99887.00;;;17.55;42.48
49835;BME280;35729;52.090;13.162;2022-09-16T12:39:55;99884.06;;;17.59;42.35
49835;BME280;35729;52.090;13.162;2022-09-16T12:54:32;99884.03;;;18.14;39.25
49835;BME280;35729;52.090;13.162;2022-09-16T12:57:17;99891.69;;;18.19;39.62
49835;BME280;35729;52.090;13.162;2022-09-16T13:00:12;99879.59;;;18.15;39.57
49835;BME280;35729;52.090;13.162;2022-09-16T13:02:46;99886.56;;;18.03;41.24
49835;BME280;35729;52.090;13.162;2022-09-16T13:05:21;99863.19;;;17.95;41.04
49835;BME280;35729;52.090;13.162;2022-09-16T13:07:54;99863.56;;;17.89;41.35
49835;BME280;35729;52.090;13.162;2022-09-16T13:10:29;99862.03;;;17.72;40.69
49835;BME280;35729;52.090;13.162;2022-09-16T13:12:59;99868.13;;;17.59;41.27
49835;BME280;35729;52.090;13.162;2022-09-16T13:15:30;99873.56;;;17.43;41.85
49835;BME280;35729;52.090;13.162;2022-09-16T13:18:21;99862.47;;;17.24;42.30
49835;BME280;35729;52.090;13.162;2022-09-16T13:20:55;99862.47;;;17.09;42.41
49835;BME280;35729;52.090;13.162;2022-09-16T13:23:28;99855.38;;;16.96;42.33
49835;BME280;35729;52.090;13.162;2022-09-16T13:26:00;99867.38;;;16.87;42.28
49835;BME280;35729;52.090;13.162;2022-09-16T13:28:35;99862.66;;;16.92;42.35
49835;BME280;35729;52.090;13.162;2022-09-16T13:31:15;99852.91;;;17.07;42.22
49835;BME280;35729;52.090;13.162;2022-09-16T13:34:00;99834.03;;;17.26;42.18